createdAt,value
2018-12-22T00:01:10.390Z,10.50
2018-12-22T00:03:41.268Z,10.48
2018-12-22T00:06:10.192Z,10.53
2018-12-22T00:08:39.085Z,10.46
2018-12-22T00:11:08.026Z,10.49
2018-12-22T00:13:36.910Z,10.55
2018-12-22T00:16:05.855Z,10.70
2018-12-22T00:18:34.758Z,10.47
2018-12-22T00:21:03.681Z,10.46
2018-12-22T00:23:32.628Z,10.44
2018-12-22T00:26:01.564Z,10.38
2018-12-22T00:28:30.450Z,10.49
2018-12-22T00:30:59.361Z,10.44
2018-12-22T00:33:28.433Z,10.39
2018-12-22T00:35:57.336Z,10.46
2018-12-22T00:38:26.257Z,10.28
2018-12-22T00:40:55.183Z,10.38
2018-12-22T00:43:24.125Z,10.71
2018-12-22T00:45:53.084Z,10.50
2018-12-22T00:48:22.001Z,10.53
2018-12-22T00:50:50.929Z,10.83
2018-12-22T00:53:19.832Z,10.61
2018-12-22T00:55:48.737Z,10.98
2018-12-22T00:58:17.664Z,10.71
2018-12-22T01:00:46.586Z,10.78
2018-12-22T01:03:15.513Z,10.69
2018-12-22T01:05:44.411Z,10.57
2018-12-22T01:08:13.321Z,10.57
2018-12-22T01:10:42.224Z,10.53
2018-12-22T01:13:11.093Z,10.55
2018-12-22T01:15:39.966Z,10.49
2018-12-22T01:18:08.891Z,10.48
2018-12-22T01:20:37.822Z,10.60
2018-12-22T01:23:06.756Z,10.60
2018-12-22T01:25:35.638Z,10.57
2018-12-22T01:28:04.589Z,10.51
2018-12-22T01:30:33.489Z,10.62
2018-12-22T01:33:02.393Z,10.87
2018-12-22T01:35:31.387Z,10.63
2018-12-22T01:38:00.191Z,10.64
2018-12-22T01:40:29.119Z,10.49
2018-12-22T01:42:58.007Z,10.59
2018-12-22T01:45:26.928Z,10.62
2018-12-22T01:47:55.858Z,10.55
2018-12-22T01:50:24.805Z,10.85
2018-12-22T01:52:53.679Z,10.77
2018-12-22T01:55:22.611Z,10.67
2018-12-22T01:57:51.537Z,10.71
2018-12-22T02:00:20.454Z,10.68
2018-12-22T02:02:49.362Z,10.58
2018-12-22T02:05:18.253Z,10.68
2018-12-22T02:07:47.187Z,10.60
2018-12-22T02:10:16.105Z,10.53
2018-12-22T02:12:44.997Z,10.56
2018-12-22T02:15:13.887Z,10.43
2018-12-22T02:17:42.820Z,10.41
2018-12-22T02:20:11.822Z,10.44
2018-12-22T02:22:40.626Z,10.83
2018-12-22T02:25:09.549Z,10.63
2018-12-22T02:27:38.436Z,10.53
2018-12-22T02:30:07.454Z,10.66
2018-12-22T02:32:36.348Z,10.62
2018-12-22T02:35:05.314Z,10.54
2018-12-22T02:37:34.225Z,10.56
2018-12-22T02:40:03.373Z,10.56
2018-12-22T02:42:32.264Z,10.49
2018-12-22T02:45:01.182Z,10.46
2018-12-22T02:47:30.067Z,10.33
2018-12-22T02:49:58.970Z,10.44
2018-12-22T02:52:27.879Z,10.31
2018-12-22T02:54:56.751Z,10.31
2018-12-22T02:57:25.639Z,10.37
2018-12-22T02:59:54.537Z,10.20
2018-12-22T03:02:23.458Z,10.21
2018-12-22T03:04:52.345Z,10.27
2018-12-22T03:07:21.218Z,10.28
2018-12-22T03:09:50.140Z,10.30
2018-12-22T03:12:19.028Z,10.29
2018-12-22T03:14:47.912Z,10.29
2018-12-22T03:17:16.784Z,10.28
2018-12-22T03:19:45.687Z,10.27
2018-12-22T03:22:14.591Z,10.27
2018-12-22T03:24:43.511Z,10.27
2018-12-22T03:27:12.396Z,10.23
2018-12-22T03:29:41.293Z,10.26
2018-12-22T03:32:10.170Z,10.26
2018-12-22T03:34:39.059Z,10.18
2018-12-22T03:37:07.980Z,10.37
2018-12-22T03:39:36.889Z,10.38
2018-12-22T03:42:05.778Z,10.09
2018-12-22T03:44:34.702Z,10.13
2018-12-22T03:47:03.610Z,10.08
2018-12-22T03:49:32.515Z,10.02
2018-12-22T03:52:01.438Z,10.23
2018-12-22T03:54:30.346Z,10.01
2018-12-22T03:56:59.247Z,9.94
2018-12-22T03:59:28.117Z,10.00
2018-12-22T04:01:57.098Z,9.96
2018-12-22T04:04:25.949Z,9.90
2018-12-22T04:06:54.838Z,9.86
2018-12-22T04:09:23.753Z,9.88
2018-12-22T04:11:52.631Z,9.90
2018-12-22T04:14:21.524Z,10.22
2018-12-22T04:16:50.399Z,9.97
2018-12-22T04:19:19.315Z,9.84
2018-12-22T04:21:48.232Z,9.97
2018-12-22T04:24:17.114Z,9.92
2018-12-22T04:26:46.017Z,9.85
2018-12-22T04:29:14.895Z,9.96
2018-12-22T04:31:43.838Z,10.01
2018-12-22T04:34:12.744Z,10.11
2018-12-22T04:36:41.656Z,10.12
2018-12-22T04:39:10.578Z,10.13
2018-12-22T04:41:39.450Z,10.12
2018-12-22T04:44:08.365Z,10.18
2018-12-22T04:46:37.261Z,10.13
2018-12-22T04:49:06.193Z,10.25
2018-12-22T04:51:35.140Z,10.24
2018-12-22T04:54:04.034Z,10.27
2018-12-22T04:56:32.920Z,10.31
2018-12-22T04:59:01.847Z,10.33
2018-12-22T05:01:30.764Z,10.31
2018-12-22T05:03:59.656Z,10.30
2018-12-22T05:06:28.579Z,10.27
2018-12-22T05:08:57.459Z,10.27
2018-12-22T05:11:26.389Z,10.28
2018-12-22T05:13:55.291Z,10.29
2018-12-22T05:16:24.184Z,10.29
2018-12-22T05:18:53.111Z,10.27
2018-12-22T05:21:22.042Z,10.28
2018-12-22T05:23:50.927Z,10.35
2018-12-22T05:26:19.840Z,10.33
2018-12-22T05:28:48.750Z,10.30
2018-12-22T05:31:17.677Z,10.27
2018-12-22T05:33:46.580Z,10.38
2018-12-22T05:36:15.516Z,10.28
2018-12-22T05:38:44.426Z,10.40
2018-12-22T05:41:13.353Z,10.33
2018-12-22T05:43:42.253Z,10.39
2018-12-22T05:46:11.174Z,10.37
2018-12-22T05:48:40.039Z,10.37
2018-12-22T05:51:09.078Z,10.31
2018-12-22T05:53:38.004Z,10.32
2018-12-22T05:56:06.981Z,10.29
2018-12-22T05:58:35.912Z,10.34
2018-12-22T06:01:04.802Z,10.27
2018-12-22T06:03:33.713Z,10.30
2018-12-22T06:06:02.585Z,10.29
2018-12-22T06:08:31.487Z,10.26
2018-12-22T06:11:00.367Z,10.29
2018-12-22T06:13:29.297Z,10.23
2018-12-22T06:15:58.224Z,10.26
2018-12-22T06:18:27.120Z,10.53
2018-12-22T06:20:56.062Z,10.30
2018-12-22T06:23:26.743Z,10.29
2018-12-22T06:25:53.816Z,10.24
2018-12-22T06:28:22.721Z,10.28
2018-12-22T06:30:51.610Z,10.28
2018-12-22T06:33:20.541Z,10.21
2018-12-22T06:35:49.457Z,10.23
2018-12-22T06:38:18.397Z,10.24
2018-12-22T06:40:47.308Z,10.27
2018-12-22T06:43:16.213Z,10.25
2018-12-22T06:45:45.096Z,10.28
2018-12-22T06:48:14.003Z,10.27
2018-12-22T06:50:42.890Z,10.54
2018-12-22T06:53:11.812Z,10.34
2018-12-22T06:55:40.711Z,10.28
2018-12-22T06:58:09.600Z,10.28
2018-12-22T07:00:38.574Z,10.31
2018-12-22T07:03:07.464Z,10.23
2018-12-22T07:05:36.337Z,10.21
2018-12-22T07:08:05.258Z,10.27
2018-12-22T07:10:34.159Z,10.28
2018-12-22T07:13:03.021Z,10.28
2018-12-22T07:15:31.937Z,10.25
2018-12-22T07:18:00.813Z,10.25
2018-12-22T07:20:29.699Z,10.21
2018-12-22T07:22:58.579Z,10.17
2018-12-22T07:25:27.495Z,10.14
2018-12-22T07:27:56.386Z,10.06
2018-12-22T07:30:26.438Z,10.06
2018-12-22T07:32:57.230Z,10.01
2018-12-22T07:35:23.101Z,9.98
2018-12-22T07:37:51.992Z,10.15
2018-12-22T07:40:20.896Z,10.03
2018-12-22T07:42:49.798Z,9.94
2018-12-22T07:45:18.701Z,9.95
2018-12-22T07:47:47.596Z,9.98
2018-12-22T07:50:16.488Z,10.03
2018-12-22T07:52:51.609Z,9.93
2018-12-22T07:55:14.287Z,9.88
2018-12-22T07:57:43.182Z,9.93
2018-12-22T08:00:12.104Z,9.94
2018-12-22T08:02:40.983Z,9.97
2018-12-22T08:05:09.971Z,9.97
2018-12-22T08:07:38.880Z,10.06
2018-12-22T08:10:08.014Z,9.96
2018-12-22T08:12:36.905Z,10.02
2018-12-22T08:15:05.911Z,10.00
2018-12-22T08:17:34.795Z,10.10
2018-12-22T08:20:03.705Z,10.16
2018-12-22T08:22:32.600Z,10.21
2018-12-22T08:25:01.482Z,10.15
2018-12-22T08:27:30.393Z,10.15
2018-12-22T08:29:59.272Z,10.15
2018-12-22T08:32:28.173Z,10.14
2018-12-22T08:34:57.058Z,10.12
2018-12-22T08:37:25.959Z,10.09
2018-12-22T08:39:54.845Z,10.11
2018-12-22T08:42:23.741Z,10.08
2018-12-22T08:44:52.668Z,10.11
2018-12-22T08:47:21.562Z,10.15
2018-12-22T08:49:50.476Z,10.14
2018-12-22T08:52:19.371Z,10.49
2018-12-22T08:54:48.258Z,10.61
2018-12-22T08:57:17.164Z,10.46
2018-12-22T08:59:46.062Z,10.42
2018-12-22T09:02:14.939Z,10.43
2018-12-22T09:04:43.871Z,10.47
2018-12-22T09:07:12.725Z,10.75
2018-12-22T09:09:41.618Z,10.59
2018-12-22T09:12:10.508Z,10.55
2018-12-22T09:14:39.413Z,10.49
2018-12-22T09:17:08.449Z,10.36
2018-12-22T09:19:37.336Z,10.43
2018-12-22T09:22:06.370Z,10.49
2018-12-22T09:24:35.291Z,10.53
2018-12-22T09:27:04.176Z,10.56
2018-12-22T09:29:33.085Z,10.49
2018-12-22T09:32:01.998Z,10.30
2018-12-22T09:34:30.893Z,10.34
2018-12-22T09:36:59.822Z,10.32
2018-12-22T09:39:28.713Z,10.43
2018-12-22T09:41:57.622Z,10.47
2018-12-22T09:44:26.494Z,10.50
2018-12-22T09:46:55.399Z,10.50
2018-12-22T09:49:24.310Z,10.54
2018-12-22T09:51:53.192Z,10.55
2018-12-22T09:54:22.102Z,10.63
2018-12-22T09:56:51.020Z,10.64
2018-12-22T09:59:19.977Z,10.65
2018-12-22T10:01:48.823Z,10.73
2018-12-22T10:04:17.730Z,10.66
2018-12-22T10:06:46.634Z,10.69
2018-12-22T10:09:15.635Z,10.76
2018-12-22T10:11:44.655Z,10.81
2018-12-22T10:14:13.530Z,10.86
2018-12-22T10:16:42.410Z,10.90
2018-12-22T10:19:11.345Z,10.84
2018-12-22T10:21:40.209Z,10.89
2018-12-22T10:24:09.288Z,10.89
2018-12-22T10:26:38.115Z,10.93
2018-12-22T10:29:07.123Z,10.86
2018-12-22T10:31:35.995Z,10.83
2018-12-22T10:34:04.943Z,10.77
2018-12-22T10:36:33.848Z,10.83
2018-12-22T10:39:02.916Z,10.81
2018-12-22T10:41:31.795Z,10.75
2018-12-22T10:44:00.706Z,10.80
2018-12-22T10:46:29.631Z,10.86
2018-12-22T10:48:58.500Z,10.85
2018-12-22T10:51:27.426Z,10.89
2018-12-22T10:53:56.289Z,10.87
2018-12-22T10:56:25.206Z,10.80
2018-12-22T10:58:54.212Z,10.88
2018-12-22T11:01:26.615Z,10.93
2018-12-22T11:03:51.992Z,10.82
2018-12-22T11:06:20.892Z,11.14
2018-12-22T11:08:49.839Z,10.92
2018-12-22T11:11:18.746Z,10.98
2018-12-22T11:13:47.623Z,10.94
2018-12-22T11:16:16.531Z,11.03
2018-12-22T11:18:45.488Z,11.05
2018-12-22T11:21:14.351Z,11.08
2018-12-22T11:23:43.251Z,11.12
2018-12-22T11:26:12.172Z,11.06
2018-12-22T11:28:41.121Z,11.17
2018-12-22T11:31:10.122Z,11.22
2018-12-22T11:33:39.042Z,11.54
2018-12-22T11:36:08.225Z,11.39
2018-12-22T11:38:37.118Z,11.51
2018-12-22T11:41:06.124Z,11.48
2018-12-22T11:43:34.970Z,11.55
2018-12-22T11:46:04.012Z,11.60
2018-12-22T11:49:00.845Z,11.90
2018-12-22T11:51:29.802Z,11.74
2018-12-22T11:53:58.747Z,11.74
2018-12-22T11:56:27.657Z,11.74
2018-12-22T11:58:56.584Z,11.73
2018-12-22T12:01:25.508Z,11.60
2018-12-22T12:03:54.413Z,11.60
2018-12-22T12:06:23.329Z,11.58
2018-12-22T12:08:52.193Z,11.51
2018-12-22T12:11:21.074Z,11.59
2018-12-22T12:13:49.950Z,11.53
2018-12-22T12:16:44.555Z,11.53
2018-12-22T12:19:25.296Z,11.49
2018-12-22T12:21:54.184Z,11.34
2018-12-22T12:24:23.122Z,11.36
2018-12-22T12:26:52.024Z,11.31
2018-12-22T12:29:20.892Z,11.36
2018-12-22T12:31:52.298Z,11.34
2018-12-22T12:34:18.691Z,11.23
2018-12-22T12:36:47.660Z,11.23
2018-12-22T12:39:16.807Z,11.24
2018-12-22T12:41:45.923Z,11.22
2018-12-22T12:44:14.853Z,11.31
2018-12-22T12:46:51.720Z,11.32
2018-12-22T12:49:21.205Z,11.36
2018-12-22T12:51:50.161Z,11.40
2018-12-22T12:54:20.304Z,11.39
2018-12-22T12:56:54.556Z,11.41
2018-12-22T12:59:23.813Z,11.74
2018-12-22T13:02:00.793Z,11.58
2018-12-22T13:04:21.653Z,11.61
2018-12-22T13:06:50.560Z,11.85
2018-12-22T13:09:19.481Z,11.64
2018-12-22T13:11:49.529Z,11.65
2018-12-22T13:14:23.633Z,11.60
2018-12-22T13:16:52.589Z,11.60
2018-12-22T13:19:21.506Z,11.54
2018-12-22T13:21:54.418Z,11.48
2018-12-22T13:24:23.316Z,11.41
2018-12-22T13:26:52.245Z,11.38
2018-12-22T13:29:21.147Z,11.35
2018-12-22T13:31:50.035Z,11.39
2018-12-22T13:34:18.917Z,11.36
2018-12-22T13:36:47.817Z,11.28
2018-12-22T13:39:25.742Z,11.31
2018-12-22T13:41:59.020Z,11.33
2018-12-22T13:44:31.483Z,11.63
2018-12-22T13:47:01.406Z,11.45
2018-12-22T13:49:33.421Z,11.34
2018-12-22T13:52:11.926Z,11.42
2018-12-22T13:54:42.161Z,11.43
2018-12-22T13:57:12.007Z,11.39
2018-12-22T13:59:44.738Z,11.36
2018-12-22T14:02:18.220Z,11.35
2018-12-22T14:04:47.855Z,11.32
2018-12-22T14:07:19.509Z,11.29
2018-12-22T14:09:55.076Z,11.26
2018-12-22T14:12:27.444Z,11.25
2018-12-22T14:14:57.309Z,11.24
2018-12-22T14:17:36.642Z,11.30
2018-12-22T14:20:17.033Z,11.23
2018-12-22T14:22:45.933Z,11.26
2018-12-22T14:25:22.008Z,11.25
2018-12-22T14:27:55.227Z,11.25
2018-12-22T14:30:25.061Z,11.26
2018-12-22T14:32:54.924Z,11.20
2018-12-22T14:35:55.079Z,11.23
2018-12-22T14:38:25.299Z,11.21
2018-12-22T14:40:54.644Z,11.18
2018-12-22T14:43:28.251Z,11.18
2018-12-22T14:45:57.744Z,11.17
2018-12-22T14:48:27.346Z,11.16
2018-12-22T14:51:02.512Z,11.12
2018-12-22T14:53:32.048Z,11.12
2018-12-22T14:56:03.403Z,11.15
2018-12-22T14:58:35.447Z,11.03
2018-12-22T15:01:05.069Z,10.98
2018-12-22T15:03:34.548Z,10.95
2018-12-22T15:06:11.038Z,10.97
2018-12-22T15:08:42.593Z,10.90
2018-12-22T15:11:14.521Z,10.96
2018-12-22T15:13:43.725Z,10.96
2018-12-22T15:16:18.565Z,10.97
2018-12-22T15:18:50.209Z,11.18
2018-12-22T15:21:17.239Z,11.06
2018-12-22T15:23:48.687Z,10.99
2018-12-22T15:26:23.065Z,10.94
2018-12-22T15:28:56.988Z,10.92
2018-12-22T15:31:27.471Z,10.90
2018-12-22T15:34:08.893Z,10.85
2018-12-22T15:36:40.483Z,10.92
2018-12-22T15:39:11.591Z,10.93
2018-12-22T15:41:42.905Z,10.90
2018-12-22T15:44:10.366Z,10.85
2018-12-22T15:46:39.798Z,10.88
2018-12-22T15:49:09.990Z,10.86
2018-12-22T15:51:41.426Z,10.84
2018-12-22T15:54:11.115Z,10.83
2018-12-22T15:56:40.594Z,10.86
2018-12-22T15:59:10.030Z,10.83
2018-12-22T16:01:46.939Z,10.83
2018-12-22T16:04:14.403Z,10.73
2018-12-22T16:06:43.714Z,10.71
2018-12-22T16:09:12.993Z,10.64
2018-12-22T16:11:44.886Z,10.58
2018-12-22T16:14:21.575Z,10.53
2018-12-22T16:16:49.372Z,10.55
2018-12-22T16:19:22.190Z,10.59
2018-12-22T16:21:58.988Z,10.62
2018-12-22T16:24:25.220Z,10.63
2018-12-22T16:27:03.531Z,10.59
2018-12-22T16:29:44.051Z,10.49
2018-12-22T16:32:18.676Z,10.49
2018-12-22T16:34:56.723Z,10.48
2018-12-22T16:37:26.734Z,10.46
2018-12-22T16:40:00.891Z,10.40
2018-12-22T16:42:36.088Z,10.35
2018-12-22T16:45:07.385Z,10.38
2018-12-22T16:47:38.589Z,10.32
2018-12-22T16:50:11.619Z,10.27
2018-12-22T16:52:41.204Z,10.30
2018-12-22T16:55:15.077Z,10.28
2018-12-22T16:57:53.795Z,10.30
2018-12-22T17:00:26.521Z,10.33
2018-12-22T17:03:11.416Z,10.33
2018-12-22T17:05:46.483Z,10.31
2018-12-22T17:08:16.173Z,10.32
2018-12-22T17:10:51.299Z,10.30
2018-12-22T17:13:23.009Z,10.23
2018-12-22T17:16:00.494Z,10.26
2018-12-22T17:18:37.746Z,10.23
2018-12-22T17:21:38.694Z,10.28
2018-12-22T17:24:37.253Z,10.24
2018-12-22T17:27:44.020Z,10.21
2018-12-22T17:30:18.108Z,10.10
2018-12-22T17:32:59.134Z,10.08
2018-12-22T17:35:31.687Z,10.03
2018-12-22T17:38:06.900Z,10.02
2018-12-22T17:40:31.595Z,10.02
2018-12-22T17:43:06.411Z,9.94
2018-12-22T17:46:04.076Z,9.97
2018-12-22T17:48:32.965Z,9.92
2018-12-22T17:51:01.887Z,9.93
2018-12-22T17:53:30.781Z,9.92
2018-12-22T17:55:59.682Z,9.93
2018-12-22T17:58:28.587Z,9.99
2018-12-22T18:00:57.899Z,10.02
2018-12-22T18:03:31.172Z,10.02
2018-12-22T18:06:00.056Z,10.05
2018-12-22T18:08:29.013Z,10.03
2018-12-22T18:10:57.921Z,10.09
2018-12-22T18:13:28.136Z,10.10
2018-12-22T18:15:55.792Z,10.10
2018-12-22T18:18:24.709Z,10.07
2018-12-22T18:20:53.615Z,10.09
2018-12-22T18:23:22.533Z,10.02
2018-12-22T18:25:51.421Z,10.06
2018-12-22T18:28:20.350Z,10.02
2018-12-22T18:30:49.270Z,10.05
2018-12-22T18:33:18.170Z,10.06
2018-12-22T18:35:47.102Z,10.36
2018-12-22T18:38:15.994Z,10.11
2018-12-22T18:40:44.915Z,10.08
2018-12-22T18:43:13.786Z,10.10
2018-12-22T18:45:42.699Z,10.03
2018-12-22T18:48:11.667Z,9.96
2018-12-22T18:50:40.567Z,10.24
2018-12-22T18:53:09.472Z,9.97
2018-12-22T18:55:38.388Z,9.98
2018-12-22T18:58:09.601Z,9.99
2018-12-22T19:00:38.537Z,10.25
2018-12-22T19:03:07.500Z,10.06
2018-12-22T19:05:36.503Z,9.99
2018-12-22T19:08:16.008Z,9.98
2018-12-22T19:10:56.891Z,10.07
2018-12-22T19:13:25.874Z,9.93
2018-12-22T19:15:54.781Z,9.98
2018-12-22T19:18:23.666Z,10.02
2018-12-22T19:20:53.735Z,9.99
2018-12-22T19:23:24.654Z,9.94
2018-12-22T19:25:53.789Z,9.96
2018-12-22T19:28:22.694Z,9.91
2018-12-22T19:30:51.586Z,9.95
2018-12-22T19:33:20.499Z,9.97
2018-12-22T19:35:49.442Z,9.83
2018-12-22T19:38:18.372Z,9.88
2018-12-22T19:40:47.530Z,9.85
2018-12-22T19:43:16.414Z,9.86
2018-12-22T19:45:45.322Z,9.84
2018-12-22T19:48:14.212Z,9.81
2018-12-22T19:50:43.122Z,9.86
2018-12-22T19:53:12.032Z,9.84
2018-12-22T19:55:40.953Z,9.81
2018-12-22T19:58:09.874Z,9.76
2018-12-22T20:00:38.773Z,10.07
2018-12-22T20:03:07.715Z,9.80
2018-12-22T20:05:36.609Z,9.80
2018-12-22T20:08:05.499Z,9.88
2018-12-22T20:10:34.422Z,9.83
2018-12-22T20:13:03.300Z,10.11
2018-12-22T20:15:32.176Z,9.96
2018-12-22T20:18:01.094Z,10.25
2018-12-22T20:20:30.040Z,10.01
2018-12-22T20:22:58.928Z,9.85
2018-12-22T20:25:27.856Z,9.83
2018-12-22T20:27:56.749Z,9.86
2018-12-22T20:30:25.753Z,10.11
2018-12-22T20:32:56.310Z,9.90
2018-12-22T20:35:23.584Z,9.79
2018-12-22T20:37:52.476Z,9.78
2018-12-22T20:40:21.431Z,9.76
2018-12-22T20:42:50.335Z,9.71
2018-12-22T20:45:19.230Z,9.73
2018-12-22T20:47:48.119Z,9.66
2018-12-22T20:50:17.059Z,9.68
2018-12-22T20:52:45.941Z,9.61
2018-12-22T20:55:14.852Z,9.60
2018-12-22T20:57:43.770Z,9.62
2018-12-22T21:00:12.709Z,9.57
2018-12-22T21:02:41.616Z,9.57
2018-12-22T21:05:10.536Z,9.61
2018-12-22T21:07:39.438Z,9.66
2018-12-22T21:10:08.395Z,9.66
2018-12-22T21:12:37.371Z,9.72
2018-12-22T21:15:06.292Z,9.70
2018-12-22T21:17:35.178Z,9.67
2018-12-22T21:20:04.110Z,9.70
2018-12-22T21:22:32.982Z,9.71
2018-12-22T21:25:01.906Z,9.73
2018-12-22T21:27:30.776Z,9.67
2018-12-22T21:29:59.668Z,9.67
2018-12-22T21:32:28.541Z,9.62
2018-12-22T21:34:57.433Z,9.59
2018-12-22T21:37:26.321Z,9.56
2018-12-22T21:39:55.214Z,9.48
2018-12-22T21:42:24.089Z,9.43
2018-12-22T21:44:52.989Z,9.41
2018-12-22T21:47:21.863Z,9.30
2018-12-22T21:49:50.772Z,9.57
2018-12-22T21:52:19.689Z,9.66
2018-12-22T21:54:48.621Z,9.77
2018-12-22T21:57:17.467Z,9.46
2018-12-22T21:59:46.335Z,9.45
2018-12-22T22:02:15.223Z,9.42
2018-12-22T22:04:44.135Z,9.78
2018-12-22T22:07:13.010Z,9.90
2018-12-22T22:09:41.919Z,9.61
2018-12-22T22:12:10.826Z,9.44
2018-12-22T22:14:39.710Z,9.33
2018-12-22T22:17:08.632Z,9.27
2018-12-22T22:19:37.493Z,9.14
2018-12-22T22:22:06.389Z,9.19
2018-12-22T22:24:35.256Z,9.12
2018-12-22T22:27:04.175Z,9.04
2018-12-22T22:29:33.037Z,8.99
2018-12-22T22:32:01.996Z,8.95
2018-12-22T22:34:30.925Z,8.86
2018-12-22T22:36:59.737Z,8.81
2018-12-22T22:39:28.605Z,8.79
2018-12-22T22:41:57.488Z,8.73
2018-12-22T22:44:26.395Z,8.80
2018-12-22T22:46:55.260Z,8.76
2018-12-22T22:49:24.168Z,8.74
2018-12-22T22:51:53.028Z,8.80
2018-12-22T22:54:22.022Z,8.86
2018-12-22T22:56:50.838Z,8.86
2018-12-22T22:59:19.732Z,8.85
2018-12-22T23:01:48.639Z,8.90
2018-12-22T23:04:17.519Z,8.98
2018-12-22T23:06:46.408Z,8.99
2018-12-22T23:09:15.308Z,9.01
2018-12-22T23:11:44.254Z,9.02
2018-12-22T23:14:13.148Z,9.02
2018-12-22T23:16:42.097Z,9.04
2018-12-22T23:19:11.002Z,9.03
2018-12-22T23:21:39.921Z,9.04
2018-12-22T23:24:08.853Z,9.03
2018-12-22T23:26:37.750Z,9.06
2018-12-22T23:29:06.656Z,9.09
2018-12-22T23:31:35.604Z,9.14
2018-12-22T23:34:04.558Z,9.15
2018-12-22T23:36:33.444Z,9.49
2018-12-22T23:39:02.372Z,9.21
2018-12-22T23:41:31.295Z,9.27
2018-12-22T23:44:00.186Z,9.56
2018-12-22T23:46:29.087Z,9.41
2018-12-22T23:48:57.994Z,9.34
2018-12-22T23:51:26.863Z,9.35
2018-12-22T23:53:55.774Z,9.35
2018-12-22T23:56:24.652Z,9.34
2018-12-22T23:58:53.582Z,9.27
